sensor_id;sensor_type;location;lat;lon;timestamp;pressure;altitude;pressure_sealevel;temperature
8533;BMP280;4304;53.876;10.662;2022-11-13T00:02:21;110654.72;;;-139.81
8533;BMP280;4304;53.876;10.662;2022-11-13T00:04:46;110557.53;;;-139.81
8533;BMP280;4304;53.876;10.662;2022-11-13T00:07:11;110602.06;;;-139.81
8533;BMP280;4304;53.876;10.662;2022-11-13T00:09:37;110529.19;;;-139.81
8533;BMP280;4304;53.876;10.662;2022-11-13T00:12:02;110557.53;;;-139.81
8533;BMP280;4304;53.876;10.662;2022-11-13T00:14:27;110583.84;;;-139.81
8533;BMP280;4304;53.876;10.662;2022-11-13T00:16:52;110600.06;;;-139.81
8533;BMP280;4304;53.876;10.662;2022-11-13T00:19:18;110654.72;;;-139.81
8533;BMP280;4304;53.876;10.662;2022-11-13T00:21:43;110666.88;;;-139.81
8533;BMP280;4304;53.876;10.662;2022-11-13T00:24:08;110561.59;;;-139.81
8533;BMP280;4304;53.876;10.662;2022-11-13T00:26:33;110523.09;;;-139.81
8533;BMP280;4304;53.876;10.662;2022-11-13T00:29:01;110504.88;;;-139.81
8533;BMP280;4304;53.876;10.662;2022-11-13T00:31:27;110387.44;;;-139.81
8533;BMP280;4304;53.876;10.662;2022-11-13T00:33:52;110278.13;;;-139.81
8533;BMP280;4304;53.876;10.662;2022-11-13T00:36:22;110193.09;;;-139.81
8533;BMP280;4304;53.876;10.662;2022-11-13T00:38:48;110136.41;;;-139.81
8533;BMP280;4304;53.876;10.662;2022-11-13T00:41:13;110239.66;;;-139.81
8533;BMP280;4304;53.876;10.662;2022-11-13T00:43:39;110104.00;;;-139.81
8533;BMP280;4304;53.876;10.662;2022-11-13T00:46:05;110219.41;;;-139.81
8533;BMP280;4304;53.876;10.662;2022-11-13T00:48:31;110363.16;;;-139.81
8533;BMP280;4304;53.876;10.662;2022-11-13T00:50:57;110478.56;;;-139.81
8533;BMP280;4304;53.876;10.662;2022-11-13T00:53:22;110567.66;;;-139.81
8533;BMP280;4304;53.876;10.662;2022-11-13T00:55:48;110446.16;;;-139.81
8533;BMP280;4304;53.876;10.662;2022-11-13T00:58:13;110486.66;;;-139.81
8533;BMP280;4304;53.876;10.662;2022-11-13T01:00:41;110646.63;;;-139.81
8533;BMP280;4304;53.876;10.662;2022-11-13T01:03:07;110677.00;;;-139.81
8533;BMP280;4304;53.876;10.662;2022-11-13T01:05:40;110913.91;;;-139.81
8533;BMP280;4304;53.876;10.662;2022-11-13T01:08:06;110816.72;;;-139.81
8533;BMP280;4304;53.876;10.662;2022-11-13T01:10:38;110905.81;;;-139.81
8533;BMP280;4304;53.876;10.662;2022-11-13T01:13:03;110863.28;;;-139.81
8533;BMP280;4304;53.876;10.662;2022-11-13T01:15:28;110885.56;;;-139.81
8533;BMP280;4304;53.876;10.662;2022-11-13T01:17:54;110877.47;;;-139.81
8533;BMP280;4304;53.876;10.662;2022-11-13T01:20:20;111027.31;;;-139.81
8533;BMP280;4304;53.876;10.662;2022-11-13T01:22:45;111053.66;;;-139.81
8533;BMP280;4304;53.876;10.662;2022-11-13T01:25:11;110922.00;;;-139.81
8533;BMP280;4304;53.876;10.662;2022-11-13T01:27:36;110954.41;;;-139.81
8533;BMP280;4304;53.876;10.662;2022-11-13T01:30:02;110938.22;;;-139.81
8533;BMP280;4304;53.876;10.662;2022-11-13T01:32:28;111199.47;;;-139.81
8533;BMP280;4304;53.876;10.662;2022-11-13T01:34:53;110865.31;;;-139.81
8533;BMP280;4304;53.876;10.662;2022-11-13T01:37:18;110996.94;;;-139.81
8533;BMP280;4304;53.876;10.662;2022-11-13T01:39:46;111092.13;;;-139.81
8533;BMP280;4304;53.876;10.662;2022-11-13T01:42:11;111059.72;;;-139.81
8533;BMP280;4304;53.876;10.662;2022-11-13T01:47:13;110972.63;;;-139.81
8533;BMP280;4304;53.876;10.662;2022-11-13T01:49:41;110913.91;;;-139.81
8533;BMP280;4304;53.876;10.662;2022-11-13T01:52:10;111023.25;;;-139.81
8533;BMP280;4304;53.876;10.662;2022-11-13T01:54:41;110990.88;;;-139.81
8533;BMP280;4304;53.876;10.662;2022-11-13T01:57:08;110982.75;;;-139.81
8533;BMP280;4304;53.876;10.662;2022-11-13T01:59:38;110980.75;;;-139.81
8533;BMP280;4304;53.876;10.662;2022-11-13T02:02:04;110790.38;;;-139.81
8533;BMP280;4304;53.876;10.662;2022-11-13T02:04:31;110966.56;;;-139.81
8533;BMP280;4304;53.876;10.662;2022-11-13T02:06:59;110913.91;;;-139.81
8533;BMP280;4304;53.876;10.662;2022-11-13T02:09:30;110895.69;;;-139.81
8533;BMP280;4304;53.876;10.662;2022-11-13T02:11:58;110917.97;;;-139.81
8533;BMP280;4304;53.876;10.662;2022-11-13T02:14:25;111005.03;;;-139.81
8533;BMP280;4304;53.876;10.662;2022-11-13T02:16:55;111005.03;;;-139.81
8533;BMP280;4304;53.876;10.662;2022-11-13T02:19:26;111055.66;;;-139.81
8533;BMP280;4304;53.876;10.662;2022-11-13T02:22:06;111021.25;;;-139.81
8533;BMP280;4304;53.876;10.662;2022-11-13T02:24:40;110954.41;;;-139.81
8533;BMP280;4304;53.876;10.662;2022-11-13T02:27:09;110875.44;;;-139.81
8533;BMP280;4304;53.876;10.662;2022-11-13T02:29:37;110770.13;;;-139.81
8533;BMP280;4304;53.876;10.662;2022-11-13T02:32:02;110711.41;;;-139.81
8533;BMP280;4304;53.876;10.662;2022-11-13T02:34:27;110610.16;;;-139.81
8533;BMP280;4304;53.876;10.662;2022-11-13T02:36:52;110598.03;;;-139.81
8533;BMP280;4304;53.876;10.662;2022-11-13T02:39:18;110521.09;;;-139.81
8533;BMP280;4304;53.876;10.662;2022-11-13T02:41:44;110440.09;;;-139.81
8533;BMP280;4304;53.876;10.662;2022-11-13T02:44:10;110387.44;;;-139.81
8533;BMP280;4304;53.876;10.662;2022-11-13T02:46:35;110328.75;;;-139.81
8533;BMP280;4304;53.876;10.662;2022-11-13T02:49:00;110245.72;;;-139.81
8533;BMP280;4304;53.876;10.662;2022-11-13T02:51:26;110217.38;;;-139.81
8533;BMP280;4304;53.876;10.662;2022-11-13T02:53:51;110231.56;;;-139.81
8533;BMP280;4304;53.876;10.662;2022-11-13T02:56:16;110059.47;;;-139.81
8533;BMP280;4304;53.876;10.662;2022-11-13T02:58:42;110065.53;;;-139.81
8533;BMP280;4304;53.876;10.662;2022-11-13T03:01:08;110261.94;;;-139.81
8533;BMP280;4304;53.876;10.662;2022-11-13T03:03:33;110059.47;;;-139.81
8533;BMP280;4304;53.876;10.662;2022-11-13T03:05:59;110035.19;;;-139.81
8533;BMP280;4304;53.876;10.662;2022-11-13T03:08:24;110055.41;;;-139.81
8533;BMP280;4304;53.876;10.662;2022-11-13T03:10:49;110116.16;;;-139.81
8533;BMP280;4304;53.876;10.662;2022-11-13T03:13:14;110132.34;;;-139.81
8533;BMP280;4304;53.876;10.662;2022-11-13T03:15:40;110110.09;;;-139.81
8533;BMP280;4304;53.876;10.662;2022-11-13T03:18:06;110132.34;;;-139.81
8533;BMP280;4304;53.876;10.662;2022-11-13T03:20:32;110233.56;;;-139.81
8533;BMP280;4304;53.876;10.662;2022-11-13T03:22:59;110314.56;;;-139.81
8533;BMP280;4304;53.876;10.662;2022-11-13T03:25:24;110460.34;;;-139.81
8533;BMP280;4304;53.876;10.662;2022-11-13T03:27:50;110456.28;;;-139.81
8533;BMP280;4304;53.876;10.662;2022-11-13T03:30:15;110494.75;;;-139.81
8533;BMP280;4304;53.876;10.662;2022-11-13T03:32:40;110517.03;;;-139.81
8533;BMP280;4304;53.876;10.662;2022-11-13T03:35:06;110610.16;;;-139.81
8533;BMP280;4304;53.876;10.662;2022-11-13T03:37:31;110569.69;;;-139.81
8533;BMP280;4304;53.876;10.662;2022-11-13T03:39:56;110814.69;;;-139.81
8533;BMP280;4304;53.876;10.662;2022-11-13T03:42:21;110646.63;;;-139.81
8533;BMP280;4304;53.876;10.662;2022-11-13T03:44:47;110622.31;;;-139.81
8533;BMP280;4304;53.876;10.662;2022-11-13T03:47:12;110697.25;;;-139.81
8533;BMP280;4304;53.876;10.662;2022-11-13T03:49:37;110792.41;;;-139.81
8533;BMP280;4304;53.876;10.662;2022-11-13T03:52:02;110839.00;;;-139.81
8533;BMP280;4304;53.876;10.662;2022-11-13T03:54:28;110810.63;;;-139.81
8533;BMP280;4304;53.876;10.662;2022-11-13T03:56:53;110845.06;;;-139.81
8533;BMP280;4304;53.876;10.662;2022-11-13T03:59:18;110903.78;;;-139.81
8533;BMP280;4304;53.876;10.662;2022-11-13T04:01:44;110915.94;;;-139.81
8533;BMP280;4304;53.876;10.662;2022-11-13T04:04:09;110889.63;;;-139.81
8533;BMP280;4304;53.876;10.662;2022-11-13T04:06:35;110812.66;;;-139.81
8533;BMP280;4304;53.876;10.662;2022-11-13T04:09:00;110725.59;;;-139.81
8533;BMP280;4304;53.876;10.662;2022-11-13T04:11:25;110861.25;;;-139.81
8533;BMP280;4304;53.876;10.662;2022-11-13T04:13:51;111037.44;;;-139.81
8533;BMP280;4304;53.876;10.662;2022-11-13T04:16:16;110869.34;;;-139.81
8533;BMP280;4304;53.876;10.662;2022-11-13T04:18:41;110828.88;;;-139.81
8533;BMP280;4304;53.876;10.662;2022-11-13T04:21:06;110834.94;;;-139.81
8533;BMP280;4304;53.876;10.662;2022-11-13T04:23:32;110861.25;;;-139.81
8533;BMP280;4304;53.876;10.662;2022-11-13T04:25:57;110903.78;;;-139.81
8533;BMP280;4304;53.876;10.662;2022-11-13T04:28:23;110972.63;;;-139.81
8533;BMP280;4304;53.876;10.662;2022-11-13T04:30:48;110956.44;;;-139.81
8533;BMP280;4304;53.876;10.662;2022-11-13T04:33:13;110952.38;;;-139.81
8533;BMP280;4304;53.876;10.662;2022-11-13T04:35:39;110950.38;;;-139.81
8533;BMP280;4304;53.876;10.662;2022-11-13T04:38:04;110877.47;;;-139.81
8533;BMP280;4304;53.876;10.662;2022-11-13T04:40:29;110849.13;;;-139.81
8533;BMP280;4304;53.876;10.662;2022-11-13T04:42:54;110806.59;;;-139.81
8533;BMP280;4304;53.876;10.662;2022-11-13T04:45:22;110875.44;;;-139.81
8533;BMP280;4304;53.876;10.662;2022-11-13T04:47:48;110707.38;;;-139.81
8533;BMP280;4304;53.876;10.662;2022-11-13T04:50:14;110828.88;;;-139.81
8533;BMP280;4304;53.876;10.662;2022-11-13T04:52:40;110832.91;;;-139.81
8533;BMP280;4304;53.876;10.662;2022-11-13T04:55:06;110897.72;;;-139.81
8533;BMP280;4304;53.876;10.662;2022-11-13T04:57:32;110901.75;;;-139.81
8533;BMP280;4304;53.876;10.662;2022-11-13T04:59:57;110899.75;;;-139.81
8533;BMP280;4304;53.876;10.662;2022-11-13T05:02:22;110922.00;;;-139.81
8533;BMP280;4304;53.876;10.662;2022-11-13T05:04:47;110972.63;;;-139.81
8533;BMP280;4304;53.876;10.662;2022-11-13T05:07:13;111077.94;;;-139.81
8533;BMP280;4304;53.876;10.662;2022-11-13T05:09:38;110980.75;;;-139.81
8533;BMP280;4304;53.876;10.662;2022-11-13T05:12:03;111061.75;;;-139.81
8533;BMP280;4304;53.876;10.662;2022-11-13T05:14:30;111075.91;;;-139.81
8533;BMP280;4304;53.876;10.662;2022-11-13T05:16:55;111136.69;;;-139.81
8533;BMP280;4304;53.876;10.662;2022-11-13T05:19:20;111225.78;;;-139.81
8533;BMP280;4304;53.876;10.662;2022-11-13T05:21:46;111144.78;;;-139.81
8533;BMP280;4304;53.876;10.662;2022-11-13T05:24:11;111333.13;;;-139.81
8533;BMP280;4304;53.876;10.662;2022-11-13T05:26:37;111318.94;;;-139.81
8533;BMP280;4304;53.876;10.662;2022-11-13T05:29:03;111351.34;;;-139.81
8533;BMP280;4304;53.876;10.662;2022-11-13T05:31:28;111410.09;;;-139.81
8533;BMP280;4304;53.876;10.662;2022-11-13T05:33:54;111420.22;;;-139.81
8533;BMP280;4304;53.876;10.662;2022-11-13T05:36:20;111444.53;;;-139.81
8533;BMP280;4304;53.876;10.662;2022-11-13T05:38:47;111472.88;;;-139.81
8533;BMP280;4304;53.876;10.662;2022-11-13T05:41:20;111485.03;;;-139.81
8533;BMP280;4304;53.876;10.662;2022-11-13T05:43:46;111395.91;;;-139.81
8533;BMP280;4304;53.876;10.662;2022-11-13T05:46:23;111438.44;;;-139.81
8533;BMP280;4304;53.876;10.662;2022-11-13T05:48:58;111412.13;;;-139.81
8533;BMP280;4304;53.876;10.662;2022-11-13T05:51:27;111420.22;;;-139.81
8533;BMP280;4304;53.876;10.662;2022-11-13T05:53:53;111329.06;;;-139.81
8533;BMP280;4304;53.876;10.662;2022-11-13T05:56:20;111359.47;;;-139.81
8533;BMP280;4304;53.876;10.662;2022-11-13T05:58:47;111351.34;;;-139.81
8533;BMP280;4304;53.876;10.662;2022-11-13T06:01:37;111489.06;;;-139.81
8533;BMP280;4304;53.876;10.662;2022-11-13T06:04:04;111414.13;;;-139.81
8533;BMP280;4304;53.876;10.662;2022-11-13T06:06:31;111402.00;;;-139.81
8533;BMP280;4304;53.876;10.662;2022-11-13T06:08:58;111408.06;;;-139.81
8533;BMP280;4304;53.876;10.662;2022-11-13T06:11:26;111367.56;;;-139.81
8533;BMP280;4304;53.876;10.662;2022-11-13T06:13:53;111310.84;;;-139.81
8533;BMP280;4304;53.876;10.662;2022-11-13T06:16:27;111256.16;;;-139.81
8533;BMP280;4304;53.876;10.662;2022-11-13T06:18:54;111254.13;;;-139.81
8533;BMP280;4304;53.876;10.662;2022-11-13T06:21:22;111258.19;;;-139.81
8533;BMP280;4304;53.876;10.662;2022-11-13T06:23:47;111250.09;;;-139.81
8533;BMP280;4304;53.876;10.662;2022-11-13T06:26:15;111337.19;;;-139.81
8533;BMP280;4304;53.876;10.662;2022-11-13T06:28:41;111327.06;;;-139.81
8533;BMP280;4304;53.876;10.662;2022-11-13T06:31:12;111282.50;;;-139.81
8533;BMP280;4304;53.876;10.662;2022-11-13T06:33:39;111248.06;;;-139.81
8533;BMP280;4304;53.876;10.662;2022-11-13T06:36:10;111288.56;;;-139.81
8533;BMP280;4304;53.876;10.662;2022-11-13T06:38:37;111254.13;;;-139.81
8533;BMP280;4304;53.876;10.662;2022-11-13T06:41:03;111517.44;;;-139.81
8533;BMP280;4304;53.876;10.662;2022-11-13T06:43:29;111316.91;;;-139.81
8533;BMP280;4304;53.876;10.662;2022-11-13T06:45:55;111270.34;;;-139.81
8533;BMP280;4304;53.876;10.662;2022-11-13T06:48:21;111416.16;;;-139.81
8533;BMP280;4304;53.876;10.662;2022-11-13T06:50:47;111404.00;;;-139.81
8533;BMP280;4304;53.876;10.662;2022-11-13T06:53:13;111519.47;;;-139.81
8533;BMP280;4304;53.876;10.662;2022-11-13T06:55:46;111529.59;;;-139.81
8533;BMP280;4304;53.876;10.662;2022-11-13T06:58:12;111436.41;;;-139.81
8533;BMP280;4304;53.876;10.662;2022-11-13T07:00:39;111450.59;;;-139.81
8533;BMP280;4304;53.876;10.662;2022-11-13T07:03:04;111537.69;;;-139.81
8533;BMP280;4304;53.876;10.662;2022-11-13T07:05:30;111468.81;;;-139.81
8533;BMP280;4304;53.876;10.662;2022-11-13T07:07:56;111586.31;;;-139.81
8533;BMP280;4304;53.876;10.662;2022-11-13T07:10:23;111630.88;;;-139.81
8533;BMP280;4304;53.876;10.662;2022-11-13T07:12:50;111632.88;;;-139.81
8533;BMP280;4304;53.876;10.662;2022-11-13T07:15:17;111699.72;;;-139.81
8533;BMP280;4304;53.876;10.662;2022-11-13T07:17:42;111673.41;;;-139.81
8533;BMP280;4304;53.876;10.662;2022-11-13T07:20:08;111744.31;;;-139.81
8533;BMP280;4304;53.876;10.662;2022-11-13T07:22:33;111618.72;;;-139.81
8533;BMP280;4304;53.876;10.662;2022-11-13T07:24:59;111720.00;;;-139.81
8533;BMP280;4304;53.876;10.662;2022-11-13T07:27:24;111900.28;;;-139.81
8533;BMP280;4304;53.876;10.662;2022-11-13T07:29:49;111934.72;;;-139.81
8533;BMP280;4304;53.876;10.662;2022-11-13T07:32:14;111906.34;;;-139.81
8533;BMP280;4304;53.876;10.662;2022-11-13T07:34:40;112106.91;;;-139.81
8533;BMP280;4304;53.876;10.662;2022-11-13T07:37:05;112104.88;;;-139.81
8533;BMP280;4304;53.876;10.662;2022-11-13T07:39:30;112260.88;;;-139.81
8533;BMP280;4304;53.876;10.662;2022-11-13T07:41:55;112268.97;;;-139.81
8533;BMP280;4304;53.876;10.662;2022-11-13T07:44:21;112323.69;;;-139.81
8533;BMP280;4304;53.876;10.662;2022-11-13T07:46:46;112485.75;;;-139.81
8533;BMP280;4304;53.876;10.662;2022-11-13T07:49:11;112512.09;;;-139.81
8533;BMP280;4304;53.876;10.662;2022-11-13T07:51:36;112362.19;;;-139.81
8533;BMP280;4304;53.876;10.662;2022-11-13T07:54:04;112619.50;;;-139.81
8533;BMP280;4304;53.876;10.662;2022-11-13T07:56:29;112487.78;;;-139.81
8533;BMP280;4304;53.876;10.662;2022-11-13T07:58:54;112621.53;;;-139.81
8533;BMP280;4304;53.876;10.662;2022-11-13T08:01:20;112621.53;;;-139.81
8533;BMP280;4304;53.876;10.662;2022-11-13T08:03:45;112621.53;;;-139.81
8533;BMP280;4304;53.876;10.662;2022-11-13T08:06:10;112880.88;;;-139.81
8533;BMP280;4304;53.876;10.662;2022-11-13T08:08:35;112880.88;;;-139.81
8533;BMP280;4304;53.876;10.662;2022-11-13T08:11:16;112856.56;;;-139.81
8533;BMP280;4304;53.876;10.662;2022-11-13T08:13:44;112880.88;;;-139.81
8533;BMP280;4304;53.876;10.662;2022-11-13T08:16:10;112880.88;;;-139.81
8533;BMP280;4304;53.876;10.662;2022-11-13T08:18:38;112880.88;;;-139.81
8533;BMP280;4304;53.876;10.662;2022-11-13T08:21:04;113140.28;;;-139.81
8533;BMP280;4304;53.876;10.662;2022-11-13T08:23:33;112880.88;;;-139.81
8533;BMP280;4304;53.876;10.662;2022-11-13T08:26:03;112880.88;;;-139.81
8533;BMP280;4304;53.876;10.662;2022-11-13T08:28:29;112880.88;;;-139.81
8533;BMP280;4304;53.876;10.662;2022-11-13T08:30:54;113140.28;;;-139.81
8533;BMP280;4304;53.876;10.662;2022-11-13T08:33:20;112880.88;;;-139.81
8533;BMP280;4304;53.876;10.662;2022-11-13T08:35:57;113140.28;;;-139.81
8533;BMP280;4304;53.876;10.662;2022-11-13T08:38:23;112880.88;;;-139.81
8533;BMP280;4304;53.876;10.662;2022-11-13T08:40:49;113140.28;;;-139.81
8533;BMP280;4304;53.876;10.662;2022-11-13T08:43:14;113140.28;;;-139.81
8533;BMP280;4304;53.876;10.662;2022-11-13T08:45:40;112880.88;;;-139.81
8533;BMP280;4304;53.876;10.662;2022-11-13T08:48:08;113140.28;;;-139.81
8533;BMP280;4304;53.876;10.662;2022-11-13T08:50:33;113140.28;;;-139.81
8533;BMP280;4304;53.876;10.662;2022-11-13T08:52:59;113140.28;;;-139.81
8533;BMP280;4304;53.876;10.662;2022-11-13T08:55:25;112880.88;;;-139.81
8533;BMP280;4304;53.876;10.662;2022-11-13T08:57:51;113140.28;;;-139.81
8533;BMP280;4304;53.876;10.662;2022-11-13T09:00:16;112880.88;;;-139.81
8533;BMP280;4304;53.876;10.662;2022-11-13T09:02:42;112880.88;;;-139.81
8533;BMP280;4304;53.876;10.662;2022-11-13T09:05:07;113140.28;;;-139.81
8533;BMP280;4304;53.876;10.662;2022-11-13T09:07:34;113140.28;;;-139.81
8533;BMP280;4304;53.876;10.662;2022-11-13T09:09:59;113140.28;;;-139.81
8533;BMP280;4304;53.876;10.662;2022-11-13T09:12:24;113140.28;;;-139.81
8533;BMP280;4304;53.876;10.662;2022-11-13T09:14:50;113140.28;;;-139.81
8533;BMP280;4304;53.876;10.662;2022-11-13T09:17:15;113399.69;;;-139.81
8533;BMP280;4304;53.876;10.662;2022-11-13T09:19:41;113140.28;;;-139.81
8533;BMP280;4304;53.876;10.662;2022-11-13T09:22:06;113399.69;;;-139.81
8533;BMP280;4304;53.876;10.662;2022-11-13T09:24:31;113140.28;;;-139.81
8533;BMP280;4304;53.876;10.662;2022-11-13T09:26:56;113140.28;;;-139.81
8533;BMP280;4304;53.876;10.662;2022-11-13T09:29:22;113140.28;;;-139.81
8533;BMP280;4304;53.876;10.662;2022-11-13T09:31:48;113140.28;;;-139.81
8533;BMP280;4304;53.876;10.662;2022-11-13T09:34:13;113140.28;;;-139.81
8533;BMP280;4304;53.876;10.662;2022-11-13T09:36:39;113140.28;;;-139.81
8533;BMP280;4304;53.876;10.662;2022-11-13T09:39:04;113140.28;;;-139.81
8533;BMP280;4304;53.876;10.662;2022-11-13T09:41:39;113399.69;;;-139.81
8533;BMP280;4304;53.876;10.662;2022-11-13T09:44:12;113140.28;;;-139.81
8533;BMP280;4304;53.876;10.662;2022-11-13T09:46:47;113140.28;;;-139.81
8533;BMP280;4304;53.876;10.662;2022-11-13T09:49:16;113140.28;;;-139.81
8533;BMP280;4304;53.876;10.662;2022-11-13T09:52:02;113140.28;;;-139.81
8533;BMP280;4304;53.876;10.662;2022-11-13T09:54:29;113140.28;;;-139.81
8533;BMP280;4304;53.876;10.662;2022-11-13T09:59:45;113399.69;;;-139.81
8533;BMP280;4304;53.876;10.662;2022-11-13T10:02:22;113399.69;;;-139.81
8533;BMP280;4304;53.876;10.662;2022-11-13T10:05:18;113399.69;;;-139.81
8533;BMP280;4304;53.876;10.662;2022-11-13T10:08:12;113399.69;;;-139.81
8533;BMP280;4304;53.876;10.662;2022-11-13T10:13:26;113399.69;;;-139.81
8533;BMP280;4304;53.876;10.662;2022-11-13T10:16:02;113140.28;;;-139.81
8533;BMP280;4304;53.876;10.662;2022-11-13T10:18:30;113140.28;;;-139.81
8533;BMP280;4304;53.876;10.662;2022-11-13T10:21:23;113659.13;;;-139.81
8533;BMP280;4304;53.876;10.662;2022-11-13T10:23:54;113399.69;;;-139.81
8533;BMP280;4304;53.876;10.662;2022-11-13T10:26:23;113399.69;;;-139.81
8533;BMP280;4304;53.876;10.662;2022-11-13T10:28:58;113399.69;;;-139.81
8533;BMP280;4304;53.876;10.662;2022-11-13T10:31:25;113399.69;;;-139.81
8533;BMP280;4304;53.876;10.662;2022-11-13T10:33:53;113140.28;;;-139.81
8533;BMP280;4304;53.876;10.662;2022-11-13T10:36:35;113399.69;;;-139.81
8533;BMP280;4304;53.876;10.662;2022-11-13T10:39:09;113399.69;;;-139.81
8533;BMP280;4304;53.876;10.662;2022-11-13T10:42:23;113399.69;;;-139.81
8533;BMP280;4304;53.876;10.662;2022-11-13T10:44:58;113399.69;;;-139.81
8533;BMP280;4304;53.876;10.662;2022-11-13T10:47:31;113399.69;;;-139.81
8533;BMP280;4304;53.876;10.662;2022-11-13T10:50:13;113399.69;;;-139.81
8533;BMP280;4304;53.876;10.662;2022-11-13T10:52:47;113399.69;;;-139.81
8533;BMP280;4304;53.876;10.662;2022-11-13T10:55:38;113399.69;;;-139.81
8533;BMP280;4304;53.876;10.662;2022-11-13T10:58:16;113140.28;;;-139.81
8533;BMP280;4304;53.876;10.662;2022-11-13T11:00:42;113140.28;;;-139.81
8533;BMP280;4304;53.876;10.662;2022-11-13T11:03:13;113399.69;;;-139.81
8533;BMP280;4304;53.876;10.662;2022-11-13T11:05:38;113399.69;;;-139.81
8533;BMP280;4304;53.876;10.662;2022-11-13T11:08:08;113399.69;;;-139.81
8533;BMP280;4304;53.876;10.662;2022-11-13T11:10:35;113399.69;;;-139.81
8533;BMP280;4304;53.876;10.662;2022-11-13T11:13:18;113399.69;;;-139.81
8533;BMP280;4304;53.876;10.662;2022-11-13T11:15:49;113399.69;;;-139.81
8533;BMP280;4304;53.876;10.662;2022-11-13T11:19:00;113659.13;;;-139.81
8533;BMP280;4304;53.876;10.662;2022-11-13T11:21:34;113399.69;;;-139.81
8533;BMP280;4304;53.876;10.662;2022-11-13T11:24:50;113659.13;;;-139.81
8533;BMP280;4304;53.876;10.662;2022-11-13T11:30:22;113399.69;;;-139.81
8533;BMP280;4304;53.876;10.662;2022-11-13T11:35:44;113399.69;;;-139.81
8533;BMP280;4304;53.876;10.662;2022-11-13T11:41:14;113399.69;;;-139.81
8533;BMP280;4304;53.876;10.662;2022-11-13T11:43:46;113399.69;;;-139.81
8533;BMP280;4304;53.876;10.662;2022-11-13T11:46:13;113399.69;;;-139.81
8533;BMP280;4304;53.876;10.662;2022-11-13T11:48:39;113399.69;;;-139.81
8533;BMP280;4304;53.876;10.662;2022-11-13T11:56:41;113399.69;;;-139.81
8533;BMP280;4304;53.876;10.662;2022-11-13T11:59:14;113399.69;;;-139.81
8533;BMP280;4304;53.876;10.662;2022-11-13T12:09:28;113659.13;;;-139.81
8533;BMP280;4304;53.876;10.662;2022-11-13T12:14:45;113659.13;;;-139.81
8533;BMP280;4304;53.876;10.662;2022-11-13T12:20:02;113918.59;;;-139.81
8533;BMP280;4304;53.876;10.662;2022-11-13T12:25:50;113918.59;;;-139.81
8533;BMP280;4304;53.876;10.662;2022-11-13T12:36:52;113918.59;;;-139.81
8533;BMP280;4304;53.876;10.662;2022-11-13T12:39:33;113659.13;;;-139.81
8533;BMP280;4304;53.876;10.662;2022-11-13T12:42:59;113918.59;;;-139.81
8533;BMP280;4304;53.876;10.662;2022-11-13T12:47:41;113918.59;;;-139.81
8533;BMP280;4304;53.876;10.662;2022-11-13T12:50:30;114178.06;;;-139.81
8533;BMP280;4304;53.876;10.662;2022-11-13T12:53:05;113918.59;;;-139.81
8533;BMP280;4304;53.876;10.662;2022-11-13T12:55:38;113918.59;;;-139.81
8533;BMP280;4304;53.876;10.662;2022-11-13T12:58:19;113659.13;;;-139.81
8533;BMP280;4304;53.876;10.662;2022-11-13T13:11:42;113918.59;;;-139.81
8533;BMP280;4304;53.876;10.662;2022-11-13T13:14:24;114178.06;;;-139.81
8533;BMP280;4304;53.876;10.662;2022-11-13T13:17:37;114178.06;;;-139.81
8533;BMP280;4304;53.876;10.662;2022-11-13T13:19:59;114178.06;;;-139.81
8533;BMP280;4304;53.876;10.662;2022-11-13T13:22:28;113918.59;;;-139.81
8533;BMP280;4304;53.876;10.662;2022-11-13T13:28:03;113918.59;;;-139.81
8533;BMP280;4304;53.876;10.662;2022-11-13T13:33:47;113918.59;;;-139.81
8533;BMP280;4304;53.876;10.662;2022-11-13T13:36:36;113918.59;;;-139.81
8533;BMP280;4304;53.876;10.662;2022-11-13T13:39:10;113918.59;;;-139.81
8533;BMP280;4304;53.876;10.662;2022-11-13T13:47:26;113918.59;;;-139.81
8533;BMP280;4304;53.876;10.662;2022-11-13T13:49:53;113918.59;;;-139.81
8533;BMP280;4304;53.876;10.662;2022-11-13T13:52:28;114178.06;;;-139.81
8533;BMP280;4304;53.876;10.662;2022-11-13T13:54:55;114178.06;;;-139.81
8533;BMP280;4304;53.876;10.662;2022-11-13T13:57:20;113918.59;;;-139.81
8533;BMP280;4304;53.876;10.662;2022-11-13T13:59:46;113918.59;;;-139.81
8533;BMP280;4304;53.876;10.662;2022-11-13T14:02:16;113918.59;;;-139.81
8533;BMP280;4304;53.876;10.662;2022-11-13T14:04:52;113918.59;;;-139.81
8533;BMP280;4304;53.876;10.662;2022-11-13T14:09:45;113918.59;;;-139.81
8533;BMP280;4304;53.876;10.662;2022-11-13T14:12:18;114178.06;;;-139.81
8533;BMP280;4304;53.876;10.662;2022-11-13T14:14:44;114178.06;;;-139.81
8533;BMP280;4304;53.876;10.662;2022-11-13T14:17:10;113918.59;;;-139.81
8533;BMP280;4304;53.876;10.662;2022-11-13T14:19:36;113918.59;;;-139.81
8533;BMP280;4304;53.876;10.662;2022-11-13T14:22:03;113918.59;;;-139.81
8533;BMP280;4304;53.876;10.662;2022-11-13T14:27:21;113918.59;;;-139.81
8533;BMP280;4304;53.876;10.662;2022-11-13T14:29:49;114178.06;;;-139.81
8533;BMP280;4304;53.876;10.662;2022-11-13T14:32:19;113918.59;;;-139.81
8533;BMP280;4304;53.876;10.662;2022-11-13T14:34:46;113918.59;;;-139.81
8533;BMP280;4304;53.876;10.662;2022-11-13T14:37:18;113918.59;;;-139.81
8533;BMP280;4304;53.876;10.662;2022-11-13T14:39:45;113918.59;;;-139.81
8533;BMP280;4304;53.876;10.662;2022-11-13T14:44:51;114178.06;;;-139.81
8533;BMP280;4304;53.876;10.662;2022-11-13T14:47:24;114178.06;;;-139.81
8533;BMP280;4304;53.876;10.662;2022-11-13T14:49:50;113918.59;;;-139.81
8533;BMP280;4304;53.876;10.662;2022-11-13T14:52:26;114178.06;;;-139.81
8533;BMP280;4304;53.876;10.662;2022-11-13T14:55:03;114178.06;;;-139.81
8533;BMP280;4304;53.876;10.662;2022-11-13T14:57:29;114178.06;;;-139.81
8533;BMP280;4304;53.876;10.662;2022-11-13T14:59:54;114178.06;;;-139.81
8533;BMP280;4304;53.876;10.662;2022-11-13T15:02:19;114178.06;;;-139.81
8533;BMP280;4304;53.876;10.662;2022-11-13T15:04:45;114178.06;;;-139.81
8533;BMP280;4304;53.876;10.662;2022-11-13T15:07:30;114178.06;;;-139.81
8533;BMP280;4304;53.876;10.662;2022-11-13T15:09:57;114178.06;;;-139.81
8533;BMP280;4304;53.876;10.662;2022-11-13T15:12:22;113918.59;;;-139.81
8533;BMP280;4304;53.876;10.662;2022-11-13T15:14:48;114178.06;;;-139.81